Wetterdaten: Woche 27.07.15 - 02.08.15 (KW31)
Datum Zeit Temp. A. Feuchte A. Luftdruck Regen Wind Richtung Taupunkt Windchill Windben
27.07.2015 00:00 16,6 C 75 % 1007,6 hPa 0,0 l/m 0,0 km/h N 12,0 C 16,6 C 0,0 km/h
27.07.2015 01:00 15,5 C 79 % 1007,1 hPa 0,0 l/m 0,0 km/h N 11,8 C 15,5 C 0,4 km/h
27.07.2015 02:00 15,6 C 80 % 1006,7 hPa 0,0 l/m 0,1 km/h N 12,2 C 15,6 C 2,0 km/h
27.07.2015 03:00 15,8 C 81 % 1006,2 hPa 0,0 l/m 0,1 km/h N 12,5 C 15,8 C 2,4 km/h
27.07.2015 04:00 15,8 C 81 % 1006,1 hPa 0,0 l/m 0,7 km/h N 12,5 C 15,8 C 4,8 km/h
27.07.2015 05:00 16,0 C 81 % 1006,3 hPa 0,0 l/m 0,8 km/h N 12,7 C 16,0 C 4,4 km/h
27.07.2015 06:00 16,4 C 79 % 1006,1 hPa 0,0 l/m 1,1 km/h N 12,7 C 16,4 C 6,4 km/h
27.07.2015 07:00 17,4 C 75 % 1006,6 hPa 0,0 l/m 1,9 km/h N 13,0 C 17,4 C 9,6 km/h
27.07.2015 08:00 18,6 C 70 % 1006,5 hPa 0,0 l/m 2,8 km/h N 12,9 C 18,6 C 9,7 km/h
27.07.2015 09:00 19,1 C 67 % 1006,9 hPa 0,0 l/m 4,8 km/h N 12,8 C 19,1 C 14,1 km/h
27.07.2015 10:00 20,4 C 65 % 1007,0 hPa 0,0 l/m 5,0 km/h N 13,6 C 20,4 C 14,9 km/h
27.07.2015 11:00 19,5 C 70 % 1007,8 hPa 1,8 l/m 6,7 km/h N 13,8 C 18,9 C 18,9 km/h
27.07.2015 12:00 17,8 C 81 % 1007,2 hPa 0,8 l/m 0,2 km/h N 14,5 C 17,8 C 3,6 km/h
27.07.2015 13:00 19,2 C 81 % 1007,3 hPa 0,0 l/m 0,2 km/h N 15,8 C 19,2 C 3,2 km/h
27.07.2015 14:00 21,3 C 78 % 1006,5 hPa 0,3 l/m 0,6 km/h N 17,1 C 21,3 C 6,0 km/h
27.07.2015 15:00 23,5 C 64 % 1005,8 hPa 0,0 l/m 1,3 km/h N 16,2 C 23,5 C 9,6 km/h
27.07.2015 16:00 23,7 C 57 % 1005,3 hPa 0,0 l/m 2,0 km/h N 14,6 C 23,7 C 13,7 km/h
27.07.2015 17:00 23,8 C 56 % 1005,0 hPa 0,0 l/m 0,6 km/h N 14,3 C 23,8 C 6,8 km/h
27.07.2015 18:00 25,4 C 49 % 1005,0 hPa 0,0 l/m 1,0 km/h N 13,9 C 25,4 C 10,1 km/h
27.07.2015 19:00 23,7 C 53 % 1005,7 hPa 0,0 l/m 2,9 km/h N 13,5 C 23,7 C 10,9 km/h
27.07.2015 20:00 20,3 C 67 % 1007,1 hPa 2,1 l/m 1,6 km/h N 13,8 C 20,3 C 10,0 km/h
27.07.2015 21:00 17,1 C 80 % 1007,8 hPa 2,3 l/m 0,0 km/h N 13,6 C 17,1 C 1,6 km/h
27.07.2015 22:00 15,9 C 81 % 1008,3 hPa 1,6 l/m 0,1 km/h N 12,7 C 15,9 C 1,6 km/h
27.07.2015 23:00 15,3 C 81 % 1008,8 hPa 0,5 l/m 0,0 km/h N 12,0 C 15,3 C 1,2 km/h
28.07.2015 00:00 14,8 C 81 % 1009,0 hPa 0,3 l/m 0,2 km/h N 11,7 C 14,8 C 1,6 km/h
28.07.2015 01:00 14,5 C 80 % 1009,0 hPa 0,0 l/m 0,1 km/h N 11,1 C 14,5 C 0,8 km/h
28.07.2015 02:00 14,4 C 80 % 1009,1 hPa 0,3 l/m 0,2 km/h N 11,0 C 14,4 C 2,4 km/h
28.07.2015 03:00 14,6 C 80 % 1008,8 hPa 0,3 l/m 0,6 km/h N 11,1 C 14,6 C 5,6 km/h
28.07.2015 04:00 14,3 C 80 % 1008,8 hPa 0,0 l/m 0,1 km/h N 10,9 C 14,3 C 2,4 km/h
28.07.2015 05:00 13,5 C 81 % 1008,9 hPa 0,0 l/m 0,2 km/h N 10,3 C 13,5 C 1,6 km/h
28.07.2015 06:00 14,1 C 80 % 1009,0 hPa 0,0 l/m 0,0 km/h N 10,7 C 14,1 C 0,8 km/h
28.07.2015 07:00 15,1 C 80 % 1009,3 hPa 0,0 l/m 0,0 km/h N 11,7 C 15,1 C 0,0 km/h
28.07.2015 08:00 16,2 C 81 % 1009,5 hPa 0,0 l/m 0,0 km/h N 12,8 C 16,2 C 0,4 km/h
28.07.2015 09:00 18,0 C 81 % 1009,6 hPa 0,0 l/m 0,2 km/h N 14,7 C 18,0 C 3,2 km/h
28.07.2015 10:00 19,3 C 78 % 1009,7 hPa 0,0 l/m 0,0 km/h N 15,4 C 19,3 C 0,0 km/h
28.07.2015 11:00 21,1 C 69 % 1009,5 hPa 0,0 l/m 0,0 km/h N 15,1 C 21,1 C 1,2 km/h
28.07.2015 12:00 24,3 C 54 % 1009,1 hPa 0,3 l/m 1,1 km/h N 14,4 C 24,3 C 7,3 km/h
28.07.2015 13:00 26,3 C 46 % 1008,6 hPa 0,0 l/m 2,3 km/h N 13,5 C 26,3 C 11,3 km/h
28.07.2015 14:00 24,9 C 54 % 1008,5 hPa 0,0 l/m 3,9 km/h N 14,8 C 24,9 C 14,5 km/h
28.07.2015 15:00 24,8 C 53 % 1008,3 hPa 0,0 l/m 4,1 km/h N 14,5 C 24,8 C 15,7 km/h
28.07.2015 16:00 24,1 C 53 % 1007,8 hPa 0,0 l/m 5,3 km/h N 13,8 C 24,1 C 19,3 km/h
28.07.2015 17:00 24,3 C 53 % 1007,3 hPa 0,0 l/m 3,5 km/h N 14,0 C 24,3 C 14,9 km/h
28.07.2015 18:00 24,5 C 50 % 1007,1 hPa 0,0 l/m 4,1 km/h N 13,4 C 24,5 C 16,5 km/h
28.07.2015 19:00 24,2 C 52 % 1007,3 hPa 0,0 l/m 1,4 km/h N 13,5 C 24,2 C 9,2 km/h
28.07.2015 20:00 23,1 C 55 % 1007,5 hPa 0,0 l/m 0,1 km/h N 13,6 C 23,1 C 2,4 km/h
28.07.2015 21:00 21,8 C 58 % 1007,9 hPa 0,0 l/m 0,2 km/h N 13,2 C 21,8 C 3,6 km/h
28.07.2015 22:00 20,8 C 65 % 1008,2 hPa 0,0 l/m 0,1 km/h N 13,8 C 20,8 C 1,2 km/h
28.07.2015 23:00 19,9 C 72 % 1008,7 hPa 0,0 l/m 0,0 km/h N 14,5 C 19,9 C 0,0 km/h
29.07.2015 00:00 19,3 C 74 % 1008,6 hPa 0,0 l/m 0,0 km/h N 14,4 C 19,3 C 0,4 km/h
29.07.2015 01:00 19,0 C 75 % 1008,6 hPa 0,0 l/m 0,0 km/h N 14,4 C 19,0 C 0,8 km/h
29.07.2015 02:00 18,9 C 77 % 1008,7 hPa 0,3 l/m 0,0 km/h N 14,8 C 18,9 C 0,4 km/h
29.07.2015 03:00 17,9 C 80 % 1009,0 hPa 0,0 l/m 0,8 km/h N 14,3 C 17,9 C 4,0 km/h
29.07.2015 04:00 17,3 C 79 % 1010,1 hPa 0,3 l/m 6,7 km/h N 13,5 C 16,9 C 18,9 km/h
29.07.2015 05:00 15,5 C 81 % 1011,3 hPa 0,0 l/m 5,4 km/h N 12,2 C 15,3 C 16,9 km/h
29.07.2015 06:00 14,7 C 81 % 1011,9 hPa 1,6 l/m 2,9 km/h N 11,4 C 14,7 C 10,9 km/h
29.07.2015 07:00 14,6 C 81 % 1012,2 hPa 1,8 l/m 2,5 km/h N 11,4 C 14,6 C 8,9 km/h
29.07.2015 08:00 14,7 C 81 % 1012,2 hPa 0,0 l/m 0,2 km/h N 11,4 C 14,7 C 4,8 km/h
29.07.2015 09:00 15,2 C 80 % 1012,1 hPa 0,0 l/m 0,1 km/h N 11,8 C 15,2 C 1,6 km/h
29.07.2015 10:00 15,4 C 81 % 1012,0 hPa 0,0 l/m 1,4 km/h N 12,2 C 15,4 C 6,8 km/h
29.07.2015 11:00 16,1 C 81 % 1011,6 hPa 0,0 l/m 0,3 km/h N 12,8 C 16,1 C 4,4 km/h
29.07.2015 12:00 17,8 C 79 % 1011,2 hPa 0,0 l/m 0,5 km/h N 14,0 C 17,8 C 5,2 km/h
29.07.2015 13:00 18,3 C 78 % 1010,7 hPa 0,0 l/m 0,8 km/h N 14,4 C 18,3 C 7,6 km/h
29.07.2015 14:00 18,9 C 78 % 1010,3 hPa 0,0 l/m 0,8 km/h N 14,8 C 18,9 C 8,4 km/h
29.07.2015 15:00 20,8 C 73 % 1009,5 hPa 0,0 l/m 3,2 km/h N 15,6 C 20,8 C 11,7 km/h
29.07.2015 16:00 21,5 C 68 % 1009,0 hPa 0,0 l/m 3,5 km/h N 15,3 C 21,5 C 13,7 km/h
29.07.2015 17:00 21,8 C 67 % 1008,8 hPa 0,0 l/m 2,6 km/h N 15,4 C 21,8 C 10,5 km/h
29.07.2015 18:00 21,1 C 69 % 1008,7 hPa 0,0 l/m 1,1 km/h N 15,1 C 21,1 C 8,9 km/h
29.07.2015 19:00 19,7 C 75 % 1008,9 hPa 0,0 l/m 0,6 km/h N 15,0 C 19,7 C 6,0 km/h
29.07.2015 20:00 18,6 C 78 % 1009,3 hPa 0,0 l/m 0,2 km/h N 14,8 C 18,6 C 4,0 km/h
29.07.2015 21:00 18,0 C 80 % 1009,9 hPa 1,0 l/m 0,4 km/h N 14,5 C 18,0 C 5,2 km/h
29.07.2015 22:00 17,4 C 81 % 1009,9 hPa 0,3 l/m 0,1 km/h N 14,1 C 17,4 C 2,8 km/h
29.07.2015 23:00 17,3 C 80 % 1010,5 hPa 0,8 l/m 0,0 km/h N 13,8 C 17,3 C 0,4 km/h
30.07.2015 00:00 17,4 C 80 % 1011,0 hPa 0,8 l/m 1,8 km/h N 13,9 C 17,4 C 7,3 km/h
30.07.2015 01:00 17,5 C 80 % 1011,7 hPa 3,9 l/m 3,9 km/h N 14,0 C 17,5 C 12,5 km/h
30.07.2015 02:00 17,1 C 80 % 1012,0 hPa 0,3 l/m 2,0 km/h N 13,6 C 17,1 C 10,1 km/h
30.07.2015 03:00 16,1 C 82 % 1012,8 hPa 0,0 l/m 2,8 km/h N 12,9 C 16,1 C 10,9 km/h
30.07.2015 04:00 15,6 C 82 % 1013,0 hPa 0,0 l/m 0,5 km/h N 12,5 C 15,6 C 5,6 km/h
30.07.2015 05:00 15,1 C 82 % 1013,3 hPa 0,0 l/m 0,7 km/h N 12,0 C 15,1 C 4,8 km/h
30.07.2015 06:00 15,1 C 82 % 1013,7 hPa 0,0 l/m 0,6 km/h N 12,0 C 15,1 C 6,8 km/h
30.07.2015 07:00 15,8 C 80 % 1014,3 hPa 0,0 l/m 2,5 km/h N 12,3 C 15,8 C 12,1 km/h
30.07.2015 08:00 16,5 C 78 % 1014,5 hPa 0,0 l/m 4,3 km/h N 12,5 C 16,5 C 14,1 km/h
30.07.2015 09:00 17,8 C 69 % 1014,4 hPa 0,0 l/m 6,1 km/h N 11,9 C 17,8 C 18,9 km/h
30.07.2015 10:00 19,1 C 63 % 1014,5 hPa 0,0 l/m 4,7 km/h N 12,0 C 19,1 C 15,3 km/h
30.07.2015 11:00 20,2 C 57 % 1014,3 hPa 0,0 l/m 2,5 km/h N 11,3 C 20,2 C 10,9 km/h
30.07.2015 12:00 20,9 C 54 % 1014,0 hPa 0,0 l/m 5,3 km/h N 11,2 C 20,9 C 14,9 km/h
30.07.2015 13:00 22,4 C 51 % 1013,7 hPa 0,0 l/m 3,5 km/h N 11,6 C 22,4 C 13,3 km/h
30.07.2015 14:00 23,0 C 47 % 1013,3 hPa 0,0 l/m 4,4 km/h N 11,1 C 23,0 C 13,7 km/h
30.07.2015 15:00 23,3 C 47 % 1013,0 hPa 0,0 l/m 2,6 km/h N 11,2 C 23,3 C 12,9 km/h
30.07.2015 16:00 23,3 C 44 % 1012,9 hPa 0,0 l/m 2,7 km/h N 10,3 C 23,3 C 16,1 km/h
30.07.2015 17:00 23,4 C 43 % 1012,7 hPa 0,0 l/m 3,7 km/h N 10,1 C 23,4 C 16,5 km/h
30.07.2015 18:00 23,6 C 44 % 1012,7 hPa 0,0 l/m 2,5 km/h N 10,5 C 23,6 C 14,9 km/h
30.07.2015 19:00 22,2 C 47 % 1012,8 hPa 0,0 l/m 1,7 km/h N 10,2 C 22,2 C 12,1 km/h
30.07.2015 20:00 21,5 C 50 % 1013,1 hPa 0,0 l/m 0,9 km/h N 10,6 C 21,5 C 9,2 km/h
30.07.2015 21:00 20,5 C 53 % 1013,6 hPa 0,0 l/m 2,1 km/h N 10,5 C 20,5 C 14,1 km/h
30.07.2015 22:00 20,0 C 53 % 1013,8 hPa 0,0 l/m 8,1 km/h N 10,2 C 19,4 C 20,5 km/h
30.07.2015 23:00 20,0 C 54 % 1014,3 hPa 0,0 l/m 6,8 km/h N 10,3 C 19,8 C 18,9 km/h
31.07.2015 00:00 19,7 C 55 % 1014,6 hPa 0,0 l/m 4,8 km/h N 10,4 C 19,6 C 14,1 km/h
31.07.2015 01:00 19,2 C 56 % 1014,7 hPa 0,0 l/m 2,6 km/h N 10,2 C 19,2 C 8,9 km/h
31.07.2015 02:00 19,1 C 57 % 1015,1 hPa 0,0 l/m 1,3 km/h N 10,2 C 19,1 C 5,6 km/h
31.07.2015 03:00 18,7 C 60 % 1015,2 hPa 0,0 l/m 0,7 km/h N 10,6 C 18,7 C 3,6 km/h
31.07.2015 04:00 18,1 C 64 % 1015,1 hPa 0,0 l/m 0,1 km/h N 11,2 C 18,1 C 1,6 km/h
31.07.2015 05:00 17,2 C 69 % 1015,5 hPa 0,0 l/m 0,6 km/h N 11,3 C 17,2 C 3,2 km/h
31.07.2015 06:00 16,8 C 71 % 1015,9 hPa 0,0 l/m 0,5 km/h N 11,5 C 16,8 C 4,4 km/h
31.07.2015 07:00 16,9 C 72 % 1016,2 hPa 0,0 l/m 0,2 km/h N 11,7 C 16,9 C 3,2 km/h
31.07.2015 08:00 18,0 C 68 % 1016,6 hPa 0,0 l/m 2,4 km/h N 12,0 C 17,9 C 10,4 km/h
31.07.2015 09:00 20,0 C 58 % 1016,7 hPa 0,0 l/m 6,3 km/h N 11,5 C 19,9 C 17,3 km/h
31.07.2015 10:00 21,5 C 48 % 1016,9 hPa 0,0 l/m 5,2 km/h N 10,0 C 21,5 C 15,3 km/h
31.07.2015 11:00 22,6 C 44 % 1016,9 hPa 0,0 l/m 3,4 km/h N 9,7 C 22,6 C 12,5 km/h
31.07.2015 12:00 23,2 C 40 % 1016,7 hPa 0,0 l/m 4,1 km/h N 8,9 C 23,2 C 14,9 km/h
31.07.2015 13:00 23,6 C 36 % 1016,3 hPa 0,0 l/m 4,5 km/h N 7,8 C 23,6 C 16,1 km/h
31.07.2015 14:00 23,6 C 37 % 1016,2 hPa 0,0 l/m 3,4 km/h N 7,9 C 23,6 C 12,9 km/h
31.07.2015 15:00 24,3 C 37 % 1015,7 hPa 0,0 l/m 4,3 km/h N 8,8 C 24,3 C 11,3 km/h
31.07.2015 16:00 24,2 C 38 % 1015,4 hPa 0,0 l/m 4,1 km/h N 8,7 C 24,1 C 14,9 km/h
31.07.2015 17:00 24,3 C 35 % 1015,1 hPa 0,0 l/m 2,6 km/h N 7,7 C 24,3 C 12,1 km/h
31.07.2015 18:00 25,3 C 33 % 1015,1 hPa 0,0 l/m 1,0 km/h N 7,9 C 25,3 C 7,2 km/h
31.07.2015 19:00 25,4 C 34 % 1015,0 hPa 0,0 l/m 0,6 km/h N 8,3 C 25,4 C 3,6 km/h
31.07.2015 20:00 23,1 C 39 % 1015,3 hPa 0,0 l/m 0,1 km/h N 8,5 C 23,1 C 1,6 km/h
31.07.2015 21:00 19,4 C 50 % 1016,0 hPa 0,0 l/m 0,0 km/h N 8,6 C 19,4 C 0,8 km/h
31.07.2015 22:00 16,6 C 61 % 1016,4 hPa 0,0 l/m 0,0 km/h N 9,0 C 16,6 C 0,0 km/h
31.07.2015 23:00 14,8 C 68 % 1016,3 hPa 0,0 l/m 0,0 km/h N 8,9 C 14,8 C 0,0 km/h
01.08.2015 00:00 13,7 C 72 % 1016,2 hPa 0,0 l/m 0,0 km/h N 8,7 C 13,7 C 0,0 km/h
01.08.2015 01:00 13,1 C 76 % 1015,9 hPa 0,0 l/m 0,0 km/h N 9,0 C 13,1 C 0,0 km/h
01.08.2015 02:00 12,2 C 79 % 1015,7 hPa 0,0 l/m 0,0 km/h N 8,6 C 12,2 C 0,0 km/h
01.08.2015 03:00 11,5 C 81 % 1015,9 hPa 0,0 l/m 0,0 km/h N 8,3 C 11,5 C 0,0 km/h
01.08.2015 04:00 11,1 C 82 % 1015,8 hPa 0,0 l/m 0,0 km/h N 8,1 C 11,1 C 0,0 km/h
01.08.2015 05:00 10,5 C 82 % 1015,9 hPa 0,0 l/m 0,0 km/h N 7,6 C 10,5 C 0,0 km/h
01.08.2015 06:00 10,5 C 82 % 1015,9 hPa 0,0 l/m 0,0 km/h N 7,5 C 10,5 C 0,4 km/h
01.08.2015 07:00 12,5 C 80 % 1015,8 hPa 0,0 l/m 0,7 km/h N 9,1 C 12,5 C 5,6 km/h
01.08.2015 08:00 16,8 C 67 % 1015,8 hPa 0,0 l/m 1,5 km/h N 10,7 C 16,8 C 9,3 km/h
01.08.2015 09:00 21,3 C 55 % 1015,5 hPa 0,0 l/m 3,3 km/h N 11,8 C 21,3 C 16,1 km/h
01.08.2015 10:00 23,8 C 47 % 1015,0 hPa 0,0 l/m 6,4 km/h N 11,6 C 23,7 C 19,7 km/h
01.08.2015 11:00 25,1 C 46 % 1015,0 hPa 0,0 l/m 7,0 km/h N 12,7 C 25,0 C 18,9 km/h
01.08.2015 12:00 27,0 C 38 % 1014,7 hPa 0,0 l/m 8,1 km/h N 11,3 C 26,7 C 20,9 km/h
01.08.2015 13:00 27,7 C 36 % 1014,5 hPa 0,0 l/m 7,7 km/h N 11,1 C 27,5 C 22,5 km/h
01.08.2015 14:00 28,0 C 36 % 1014,1 hPa 0,0 l/m 8,1 km/h N 11,7 C 27,8 C 23,3 km/h
01.08.2015 15:00 27,5 C 38 % 1013,9 hPa 0,0 l/m 7,1 km/h N 11,9 C 27,4 C 20,1 km/h
01.08.2015 16:00 26,8 C 39 % 1013,5 hPa 0,0 l/m 6,7 km/h N 11,7 C 26,8 C 20,9 km/h
01.08.2015 17:00 26,6 C 40 % 1013,5 hPa 0,0 l/m 6,6 km/h N 11,7 C 26,6 C 20,9 km/h
01.08.2015 18:00 26,5 C 41 % 1013,2 hPa 0,0 l/m 5,7 km/h N 12,1 C 26,5 C 16,5 km/h
01.08.2015 19:00 25,6 C 45 % 1013,2 hPa 0,0 l/m 4,6 km/h N 12,6 C 25,6 C 16,1 km/h
01.08.2015 20:00 24,0 C 50 % 1013,3 hPa 0,0 l/m 1,8 km/h N 12,8 C 24,0 C 8,9 km/h
01.08.2015 21:00 22,6 C 55 % 1013,9 hPa 0,0 l/m 0,3 km/h N 13,0 C 22,6 C 4,4 km/h
01.08.2015 22:00 21,6 C 59 % 1014,1 hPa 0,0 l/m 0,4 km/h N 13,3 C 21,6 C 6,4 km/h
01.08.2015 23:00 21,6 C 61 % 1014,5 hPa 0,0 l/m 0,7 km/h N 13,7 C 21,6 C 8,4 km/h
02.08.2015 00:00 20,3 C 66 % 1014,6 hPa 0,0 l/m 0,1 km/h N 13,7 C 20,3 C 1,6 km/h
02.08.2015 01:00 18,6 C 72 % 1014,7 hPa 0,0 l/m 0,0 km/h N 13,5 C 18,6 C 0,0 km/h
02.08.2015 02:00 18,1 C 76 % 1014,7 hPa 0,0 l/m 0,0 km/h N 13,8 C 18,1 C 0,0 km/h
02.08.2015 03:00 18,0 C 77 % 1014,7 hPa 0,0 l/m 0,0 km/h N 13,9 C 18,0 C 0,0 km/h
02.08.2015 04:00 17,9 C 78 % 1015,0 hPa 0,0 l/m 0,0 km/h N 14,1 C 17,9 C 0,0 km/h
02.08.2015 05:00 17,8 C 80 % 1015,4 hPa 0,0 l/m 0,0 km/h N 14,2 C 17,8 C 0,0 km/h
02.08.2015 06:00 17,7 C 81 % 1015,8 hPa 0,0 l/m 0,0 km/h N 14,3 C 17,7 C 0,0 km/h
02.08.2015 07:00 17,9 C 81 % 1016,5 hPa 1,0 l/m 0,1 km/h N 14,6 C 17,9 C 0,8 km/h
02.08.2015 08:00 18,3 C 81 % 1016,9 hPa 0,0 l/m 0,4 km/h N 14,9 C 18,3 C 2,8 km/h
02.08.2015 09:00 19,2 C 80 % 1017,3 hPa 0,0 l/m 2,2 km/h N 15,7 C 19,2 C 8,0 km/h
02.08.2015 10:00 19,9 C 77 % 1017,8 hPa 0,0 l/m 1,5 km/h N 15,7 C 19,9 C 7,2 km/h
02.08.2015 11:00 21,0 C 68 % 1017,8 hPa 0,0 l/m 2,7 km/h N 14,9 C 21,0 C 10,1 km/h
02.08.2015 12:00 22,1 C 62 % 1018,3 hPa 0,0 l/m 1,2 km/h N 14,5 C 22,1 C 7,6 km/h
02.08.2015 13:00 21,6 C 68 % 1018,7 hPa 1,6 l/m 0,4 km/h N 15,4 C 21,6 C 3,2 km/h
02.08.2015 14:00 21,0 C 76 % 1018,9 hPa 0,0 l/m 4,3 km/h N 16,6 C 20,9 C 10,9 km/h
02.08.2015 15:00 21,1 C 78 % 1018,7 hPa 0,0 l/m 8,5 km/h N 17,0 C 20,4 C 19,7 km/h
02.08.2015 16:00 20,5 C 77 % 1018,8 hPa 0,0 l/m 8,1 km/h N 16,3 C 19,9 C 20,5 km/h
02.08.2015 17:00 20,2 C 77 % 1018,9 hPa 0,0 l/m 6,3 km/h N 16,0 C 19,9 C 14,1 km/h
02.08.2015 18:00 20,5 C 76 % 1018,7 hPa 0,0 l/m 5,7 km/h N 16,0 C 20,5 C 16,1 km/h
02.08.2015 19:00 19,7 C 77 % 1018,8 hPa 0,0 l/m 5,7 km/h N 15,4 C 19,6 C 16,9 km/h
02.08.2015 20:00 19,2 C 77 % 1019,0 hPa 0,0 l/m 5,3 km/h N 15,1 C 19,2 C 18,1 km/h
02.08.2015 21:00 18,9 C 77 % 1019,2 hPa 0,0 l/m 2,7 km/h N 14,8 C 18,9 C 11,7 km/h
02.08.2015 22:00 19,0 C 77 % 1019,3 hPa 0,0 l/m 0,4 km/h N 14,7 C 19,0 C 5,2 km/h
02.08.2015 23:00 18,8 C 78 % 1019,2 hPa 0,0 l/m 0,4 km/h N 14,9 C 18,8 C 4,0 km/h
Min-Datum _ 01.08.15 31.07.15 27.07.15 - 27.07.15 - 31.07.15 01.08.15 27.07.15
_ Min-Zeit 06:15 18:30 17:30 - 00:00 - 17:30 06:00 00:00
Minimum _ 10,3 C 32 % 1004,9 hPa - 0,0 km/h - 7,0 C 10,3 C 0,0 km/h
Max-Datum _ 01.08.15 28.07.15 02.08.15 30.07.15 30.07.15 - 27.07.15 01.08.15 01.08.15
_ Max-Zeit 14:15 00:15 21:45 01:00 22:30 - 14:45 14:15 14:30
Maximum _ 28,2 C 83 % 1019,4 hPa 3,9 l/m 10,4 km/h
N
- 17,7 C 28,0 C 27,4 km/h
N
Durchschnitt _ 19,5 C 66 % 1012,4 hPa #23,9 l/m 2,1 km/h N 12,5 C 19,5 C 8,4 km/h